Terminal Aerodrome Forecast
Issued by NWS

Home | Current Version | Previous Version | Graphics & Text | Print | Product List | Glossary On
Versions: 1 2 3 4 5 6 7 8 9 10 11 12 13 14 15 16 17 18 19 20 21 22 23 24
000
FTUS43 KTOP 151700
TAFFOE
TAF
KFOE 151730Z 1518/1618 30019G27KT P6SM OVC015
      TEMPO 1518/1520 27014KT P6SM OVC007
     FM152200 31018G26KT P6SM OVC022
     FM161400 33015G22KT P6SM SCT030=

USA.gov is the U.S. government's official web portal to all federal, state and local government web resources and services.